Date,TemperatureHighF,TemperatureAvgF,TemperatureLowF,DewpointHighF,DewpointAvgF,DewpointLowF,HumidityHigh,HumidityAvg,HumidityLow,PressureMaxIn,PressureMinIn,WindSpeedMaxMPH,WindSpeedAvgMPH,GustSpeedMaxMPH,PrecipitationSumIn
2013-8-1,86.5,72.9,61.0,60.9,56.1,51.9,84,58,34,29.79,29.67,14,4,0,0.00
2013-8-2,72.3,64.6,58.1,61.3,58.5,55.1,95,81,62,29.91,29.79,8,4,0,0.70
2013-8-3,95.4,72.9,59.2,65.2,60.7,57.8,96,70,35,29.98,29.87,5,1,0,0.00
2013-8-4,103.1,76.7,55.4,67.5,60.8,54.6,98,65,25,29.92,29.76,6,1,0,0.00
2013-8-5,105.6,80.6,58.8,69.3,61.1,54.6,91,57,25,29.84,29.70,9,2,0,0.00
2013-8-6,108.3,83.7,61.2,71.7,59.6,51.0,86,48,23,29.81,29.67,10,2,0,0.00
2013-8-7,109.6,81.8,57.7,66.4,54.9,49.6,82,44,17,29.79,29.67,12,4,0,0.00
2013-8-8,105.8,81.6,61.5,68.1,57.4,49.7,77,47,23,29.79,29.68,14,3,0,0.00
2013-8-9,101.5,82.2,61.0,69.3,61.0,54.5,89,53,26,29.75,29.58,16,4,0,0.00
2013-8-10,106.7,80.4,63.3,68.8,61.5,56.7,84,57,25,29.80,29.65,11,3,0,0.04
2013-8-11,99.9,76.6,61.3,67.1,60.7,55.7,89,62,28,29.84,29.73,10,3,0,0.00
2013-8-12,103.6,77.9,56.5,63.5,58.2,52.6,94,57,22,29.86,29.74,12,2,0,0.00
2013-8-13,106.2,77.7,59.0,65.2,58.0,50.0,88,57,18,29.90,29.76,12,2,0,0.00
2013-8-14,99.7,70.3,55.4,70.2,56.8,52.3,94,68,21,29.80,29.65,10,2,0,0.00
2013-8-15,98.6,78.1,60.6,65.8,58.9,54.2,83,55,26,29.79,29.70,11,3,0,0.00
2013-8-16,94.5,76.6,62.4,63.4,59.1,56.2,86,57,34,29.85,29.73,8,2,0,0.00
2013-8-17,93.2,75.1,57.2,62.5,57.3,51.7,92,58,32,29.86,29.73,14,4,0,0.00
2013-8-18,96.4,75.9,60.1,58.9,54.6,49.8,78,51,24,29.93,29.74,13,5,0,0.00
2013-8-19,91.0,75.1,55.0,59.4,53.5,46.7,88,50,32,29.89,29.78,14,6,0,0.00
2013-8-20,97.7,72.7,57.4,61.8,51.2,44.2,81,52,17,29.94,29.82,9,4,0,0.00
2013-8-21,95.7,72.4,53.6,56.0,52.0,48.1,88,54,23,29.94,29.78,11,3,0,0.00
2013-8-22,93.6,74.4,54.5,64.7,55.5,49.0,88,56,25,29.81,29.62,10,2,0,0.00
2013-8-23,100.6,75.6,61.2,65.7,58.0,52.5,87,57,27,29.68,29.60,11,2,0,0.00
2013-8-24,97.3,73.4,55.8,61.3,54.7,51.5,90,56,26,29.71,29.59,13,4,0,0.00
2013-8-25,92.7,70.1,57.9,61.9,54.8,49.8,95,63,27,29.79,29.62,30,3,0,0.10
2013-8-26,89.8,68.1,54.7,61.7,57.3,52.3,98,72,37,29.82,29.73,8,2,0,0.01
2013-8-27,99.9,72.6,51.8,62.9,56.6,50.3,95,64,26,29.83,29.61,7,1,0,0.00
2013-8-28,100.8,75.3,58.6,67.5,58.5,54.0,88,61,25,29.72,29.62,7,2,0,0.00
2013-8-29,94.1,74.8,62.6,66.0,60.1,55.3,89,63,35,29.85,29.70,16,3,0,0.00
2013-8-30,93.7,72.5,55.8,61.9,56.4,51.0,93,62,27,29.99,29.86,9,2,0,0.00
2013-8-31,101.8,73.8,53.1,64.2,55.0,49.6,89,58,23,29.95,29.71,4,1,0,0.00